Time;durP1;ratioP1;P1;durP2;ratioP2;P2;SDS_P1;SDS_P2;PMS_P1;PMS_P2;Temp;Humidity;BMP_temperature;BMP_pressure;BME280_temperature;BME280_humidity;BME280_pressure;Samples;Min_cycle;Max_cycle;Signal;HPM_P1;HPM_P2
2022/12/27 00:02:20;;;;;;;12.70;1.50;;;4.20;99.90;;;;;;5115625;28;20070;-74
2022/12/27 00:04:49;;;;;;;8.07;1.45;;;4.10;99.90;;;;;;5114665;28;20364;-73
2022/12/27 00:07:16;;;;;;;;;;;4.10;99.90;;;;;;5098855;28;20059;-74
2022/12/27 00:09:43;;;;;;;12.90;1.30;;;4.00;99.90;;;;;;5097916;28;19927;-73
2022/12/27 00:12:11;;;;;;;11.73;1.70;;;4.10;99.90;;;;;;5096582;28;20043;-73
2022/12/27 00:14:39;;;;;;;14.40;1.52;;;4.00;99.90;;;;;;5098339;28;20051;-73
2022/12/27 00:17:06;;;;;;;7.22;1.35;;;4.00;99.90;;;;;;5096847;28;20368;-74
2022/12/27 00:19:33;;;;;;;11.65;1.52;;;3.90;99.90;;;;;;5098193;28;20490;-74
2022/12/27 00:22:01;;;;;;;8.40;1.63;;;3.80;99.90;;;;;;5115891;28;20047;-73
2022/12/27 00:24:28;;;;;;;15.45;1.90;;;3.80;99.90;;;;;;5096455;28;20039;-73
2022/12/27 00:26:56;;;;;;;10.13;2.00;;;4.20;99.90;;;;;;5115496;28;20051;-73
2022/12/27 00:29:23;;;;;;;12.23;1.75;;;3.80;99.90;;;;;;5115767;28;20463;-74
2022/12/27 00:31:51;;;;;;;8.63;1.70;;;3.70;99.90;;;;;;5096578;28;20062;-73
2022/12/27 00:34:18;;;;;;;11.02;1.67;;;5.30;99.90;;;;;;5115231;28;20051;-73
2022/12/27 00:36:46;;;;;;;11.82;2.05;;;3.90;99.90;;;;;;5114409;28;20048;-73
2022/12/27 00:39:13;;;;;;;12.43;1.88;;;3.90;99.90;;;;;;5115118;28;20066;-73
2022/12/27 00:41:41;;;;;;;10.77;1.25;;;4.40;99.90;;;;;;5115151;28;20495;-73
2022/12/27 00:44:08;;;;;;;12.35;1.42;;;3.70;99.90;;;;;;5114060;28;20039;-73
2022/12/27 00:46:36;;;;;;;10.02;1.48;;;3.60;99.90;;;;;;5081153;28;20051;-74
2022/12/27 00:49:03;;;;;;;15.50;1.75;;;3.60;99.90;;;;;;5080540;28;20044;-73
2022/12/27 00:51:32;;;;;;;17.48;2.63;;;3.60;99.90;;;;;;5096105;28;20380;-73
2022/12/27 00:53:59;;;;;;;15.90;2.10;;;3.50;99.90;;;;;;5114960;28;20052;-73
2022/12/27 00:56:29;;;;;;;13.05;1.60;;;3.50;99.90;;;;;;5115658;28;20039;-73
2022/12/27 00:59:00;;;;;;;13.00;1.50;;;3.50;99.90;;;;;;5120687;28;20337;-73
2022/12/27 01:01:32;;;;;;;11.55;1.60;;;3.50;99.90;;;;;;5104226;28;20044;-73
2022/12/27 01:04:01;;;;;;;11.90;1.73;;;4.10;99.90;;;;;;5120702;28;20048;-74
2022/12/27 01:06:31;;;;;;;13.35;2.00;;;3.50;99.90;;;;;;5121700;27;20047;-73
2022/12/27 01:09:00;;;;;;;12.32;2.10;;;3.50;99.90;;;;;;5104398;28;20058;-74
2022/12/27 01:11:28;;;;;;;11.10;1.95;;;5.20;99.90;;;;;;5120836;28;20047;-74
2022/12/27 01:14:01;;;;;;;15.45;1.85;;;3.50;99.90;;;;;;5104006;28;20055;-73
2022/12/27 01:16:30;;;;;;;13.80;1.75;;;3.50;99.90;;;;;;5121911;28;20052;-74
2022/12/27 01:18:58;;;;;;;11.18;1.67;;;3.50;99.90;;;;;;5120527;28;20054;-73
2022/12/27 01:21:29;;;;;;;14.57;1.70;;;3.50;99.90;;;;;;5121579;28;20047;-73
2022/12/27 01:23:57;;;;;;;9.95;1.95;;;3.40;99.90;;;;;;5102846;28;20047;-72
2022/12/27 01:26:25;;;;;;;11.82;1.60;;;3.40;99.90;;;;;;5104048;28;20043;-73
2022/12/27 01:28:53;;;;;;;12.95;1.50;;;3.40;99.90;;;;;;5104061;28;20051;-73
2022/12/27 01:31:24;;;;;;;13.45;1.95;;;3.30;99.90;;;;;;5102603;28;20058;-73
2022/12/27 01:33:56;;;;;;;12.18;1.80;;;3.30;99.90;;;;;;5121855;27;20036;-73
2022/12/27 01:36:24;;;;;;;12.20;1.70;;;3.30;99.90;;;;;;5087252;28;20051;-73
2022/12/27 01:38:52;;;;;;;9.52;1.45;;;4.10;99.90;;;;;;5120349;28;20046;-73
2022/12/27 01:44:42;;;;;;;17.88;1.92;;;3.20;99.90;;;;;;5102712;28;20043;-73
2022/12/27 01:47:47;;;;;;;15.15;1.63;;;3.30;99.90;;;;;;5103617;28;20055;-73
2022/12/27 01:50:24;;;;;;;11.73;1.50;;;3.30;99.90;;;;;;5102987;28;20052;-73
2022/12/27 01:53:10;;;;;;;13.27;1.20;;;3.30;99.90;;;;;;5121800;28;20479;-74
2022/12/27 01:55:51;;;;;;;11.27;1.55;;;3.30;99.90;;;;;;5121512;28;20048;-73
2022/12/27 01:58:22;;;;;;;6.80;1.27;;;3.30;99.90;;;;;;5120152;28;20047;-73
2022/12/27 02:00:50;;;;;;;21.63;1.60;;;3.20;99.90;;;;;;5103928;28;20066;-73
2022/12/27 02:03:24;;;;;;;10.55;1.67;;;3.20;99.90;;;;;;5121093;28;20051;-73
2022/12/27 02:05:52;;;;;;;13.82;1.63;;;3.60;99.90;;;;;;5103643;28;20047;-73
2022/12/27 02:08:40;;;;;;;11.32;1.60;;;3.20;99.90;;;;;;5102117;28;20044;-73
2022/12/27 02:11:08;;;;;;;;;;;3.20;99.90;;;;;;5117290;28;20364;-74
2022/12/27 02:13:37;;;;;;;;;;;3.30;99.90;;;;;;5118253;28;19927;-74
2022/12/27 02:16:18;;;;;;;14.88;1.70;;;3.30;99.90;;;;;;5100278;28;19919;-73
2022/12/27 02:18:46;;;;;;;8.30;1.38;;;3.30;99.90;;;;;;5116926;28;20047;-74
2022/12/27 02:21:20;;;;;;;6.90;1.40;;;3.30;99.90;;;;;;5099855;28;20074;-74
2022/12/27 02:24:03;;;;;;;13.48;1.42;;;3.30;99.90;;;;;;5099280;28;20047;-73
2022/12/27 02:26:58;;;;;;;11.43;1.55;;;3.30;99.90;;;;;;5099937;28;20043;-73
2022/12/27 02:29:46;;;;;;;19.55;1.77;;;3.40;99.90;;;;;;5100218;28;20464;-73
2022/12/27 02:32:36;;;;;;;17.00;1.60;;;3.30;99.90;;;;;;5098771;28;20039;-73
2022/12/27 02:35:25;;;;;;;12.30;1.70;;;3.40;99.90;;;;;;5099955;28;20063;-73
2022/12/27 02:38:07;;;;;;;15.85;1.52;;;3.40;99.90;;;;;;5116480;28;20048;-73
2022/12/27 02:55:31;;;;;;;14.35;1.70;;;3.50;99.90;;;;;;5117532;28;20048;-73
2022/12/27 02:58:07;;;;;;;9.38;1.80;;;3.40;99.90;;;;;;5081778;28;20055;-73
2022/12/27 03:04:01;;;;;;;11.60;1.42;;;3.40;99.90;;;;;;5115726;28;20051;-73
2022/12/27 03:06:51;;;;;;;18.42;1.88;;;3.40;99.90;;;;;;5099359;28;20040;-73
2022/12/27 03:15:54;;;;;;;13.95;1.50;;;4.10;99.90;;;;;;5098452;28;20043;-72
2022/12/27 03:18:34;;;;;;;10.52;1.77;;;3.50;99.90;;;;;;5098143;28;20051;-73
2022/12/27 03:26:45;;;;;;;13.43;1.50;;;3.50;99.90;;;;;;5075458;28;20058;-72
2022/12/27 03:35:14;;;;;;;11.95;1.30;;;3.50;99.90;;;;;;5098928;28;20044;-72
2022/12/27 03:38:02;;;;;;;10.20;1.52;;;3.60;99.90;;;;;;5115393;28;20047;-72
2022/12/27 03:43:43;;;;;;;13.65;1.50;;;3.60;99.90;;;;;;5097452;28;20047;-72
2022/12/27 03:46:32;;;;;;;11.93;1.35;;;3.60;99.90;;;;;;5116192;28;20043;-72
2022/12/27 03:49:19;;;;;;;6.88;0.95;;;4.90;99.90;;;;;;5116429;28;20050;-73
2022/12/27 03:52:15;;;;;;;10.52;1.17;;;3.60;99.90;;;;;;5080383;28;20048;-73
2022/12/27 03:54:45;;;;;;;10.57;1.38;;;3.60;99.90;;;;;;5116288;28;20040;-72
2022/12/27 03:57:16;;;;;;;15.85;1.95;;;3.30;99.90;;;;;;5114791;28;20040;-73
2022/12/27 03:59:44;;;;;;;16.75;1.67;;;3.50;99.90;;;;;;5098047;28;20055;-73
2022/12/27 04:02:12;;;;;;;13.50;1.52;;;3.50;99.90;;;;;;5116194;28;20056;-74
2022/12/27 04:04:40;;;;;;;16.67;1.67;;;3.50;99.90;;;;;;5115015;28;20058;-73
2022/12/27 04:07:07;;;;;;;18.15;1.38;;;3.40;99.90;;;;;;5116006;28;20055;-73
2022/12/27 04:34:45;;;;;;;11.98;1.60;;;3.20;99.90;;;;;;5097428;28;20044;-73
2022/12/27 04:37:18;;;;;;;18.38;1.60;;;3.10;99.90;;;;;;5096887;28;20043;-73
2022/12/27 04:54:55;;;;;;;6.72;1.25;;;3.00;99.90;;;;;;5097822;28;20035;-72
2022/12/27 04:56:32;;;;;;;17.45;1.45;;;3.00;99.90;;;;;;5115123;28;20055;-73
2022/12/27 05:02:03;;;;;;;12.57;1.17;;;3.20;99.90;;;;;;5115181;28;20040;-72
2022/12/27 05:04:34;;;;;;;10.05;1.45;;;3.10;99.90;;;;;;5096183;28;20043;-73
2022/12/27 05:13:58;;;;;;;8.15;1.15;;;3.10;99.90;;;;;;5115133;28;20044;-73
2022/12/27 05:15:22;;;;;;;12.40;1.00;;;3.00;99.90;;;;;;5114907;28;20063;-73
2022/12/27 05:17:50;;;;;;;10.35;1.42;;;3.00;99.90;;;;;;5095876;28;20061;-73
2022/12/27 05:20:17;;;;;;;13.68;1.10;;;3.00;99.90;;;;;;5114706;28;20471;-73
2022/12/27 05:25:33;;;;;;;10.77;1.38;;;3.00;99.90;;;;;;5113650;28;20048;-73
2022/12/27 05:28:05;;;;;;;9.52;1.35;;;3.70;99.90;;;;;;5115105;28;20050;-73
2022/12/27 05:30:38;;;;;;;9.48;1.20;;;2.90;99.90;;;;;;5113600;28;20479;-73
2022/12/27 05:33:06;;;;;;;11.18;1.50;;;2.90;99.90;;;;;;5097022;28;20070;-73
2022/12/27 05:35:34;;;;;;;14.82;1.52;;;2.90;99.90;;;;;;5097073;28;20372;-73
2022/12/27 05:38:03;;;;;;;20.50;1.65;;;2.90;99.90;;;;;;5096292;28;20454;-73
2022/12/27 05:40:30;;;;;;;8.73;1.50;;;2.90;99.90;;;;;;5114689;28;20463;-73
2022/12/27 05:43:01;;;;;;;11.82;1.33;;;2.90;99.90;;;;;;5114901;28;20051;-73
2022/12/27 05:45:29;;;;;;;10.88;1.38;;;3.20;99.90;;;;;;5082278;28;20046;-73
2022/12/27 05:47:58;;;;;;;14.73;1.75;;;2.90;99.90;;;;;;5118572;28;20052;-74
2022/12/27 05:50:25;;;;;;;10.60;1.20;;;2.90;99.90;;;;;;5099687;28;20073;-74
2022/12/27 05:53:06;;;;;;;13.15;1.38;;;2.90;99.90;;;;;;5100731;28;20376;-73
2022/12/27 05:55:34;;;;;;;9.27;1.20;;;2.90;99.90;;;;;;5118500;28;20039;-73
2022/12/27 05:58:02;;;;;;;14.75;1.60;;;3.40;99.90;;;;;;5117277;28;20052;-73
2022/12/27 06:00:29;;;;;;;16.75;1.50;;;2.90;99.90;;;;;;5118175;28;20039;-73
2022/12/27 06:02:57;;;;;;;;;;;2.80;99.90;;;;;;5100663;28;20048;-73
2022/12/27 06:05:25;;;;;;;12.93;1.60;;;2.80;99.90;;;;;;5099520;28;20006;-73
2022/12/27 06:07:52;;;;;;;12.68;1.50;;;2.90;99.90;;;;;;5100641;28;20066;-74
2022/12/27 06:10:19;;;;;;;17.33;1.55;;;2.90;99.90;;;;;;5116966;28;20195;-73
2022/12/27 06:12:47;;;;;;;17.02;1.77;;;2.90;99.90;;;;;;5100507;28;20047;-74
2022/12/27 06:15:14;;;;;;;15.60;1.80;;;3.00;99.90;;;;;;5083476;28;20047;-73
2022/12/27 06:17:42;;;;;;;15.52;1.77;;;3.10;99.90;;;;;;5117231;28;20050;-73
2022/12/27 06:20:10;;;;;;;15.52;1.63;;;3.20;99.90;;;;;;5100087;28;20365;-72
2022/12/27 06:22:37;;;;;;;8.18;1.15;;;3.30;99.90;;;;;;5117902;28;20040;-73
2022/12/27 06:25:05;;;;;;;14.40;1.63;;;3.40;99.90;;;;;;5098864;28;20054;-73
2022/12/27 06:27:40;;;;;;;12.82;1.38;;;3.40;99.90;;;;;;5100452;28;20376;-73
2022/12/27 06:30:10;;;;;;;11.88;1.38;;;4.70;99.90;;;;;;5116536;28;20047;-73
2022/12/27 06:32:38;;;;;;;14.13;1.40;;;3.60;99.90;;;;;;5117818;28;20047;-73
2022/12/27 06:35:06;;;;;;;10.15;1.23;;;3.60;99.90;;;;;;5117432;28;20102;-73
2022/12/27 06:37:34;;;;;;;12.13;1.20;;;3.70;99.90;;;;;;5098607;28;20040;-73
2022/12/27 06:40:02;;;;;;;19.20;1.58;;;3.80;99.90;;;;;;5117527;28;20051;-73
2022/12/27 06:42:29;;;;;;;13.75;1.42;;;3.90;99.90;;;;;;5099982;28;20384;-73
2022/12/27 06:44:57;;;;;;;15.77;1.40;;;4.10;99.90;;;;;;5081671;28;20067;-73
2022/12/27 06:47:24;;;;;;;13.35;1.65;;;4.00;99.90;;;;;;5117552;28;20487;-73
2022/12/27 06:49:52;;;;;;;14.05;1.42;;;4.10;99.90;;;;;;5117492;28;20375;-74
2022/12/27 06:52:21;;;;;;;14.45;1.42;;;4.20;99.90;;;;;;5116271;28;20048;-73
2022/12/27 06:54:49;;;;;;;16.88;1.33;;;4.30;99.90;;;;;;5116784;28;20046;-73
2022/12/27 06:57:16;;;;;;;14.52;1.25;;;4.30;99.90;;;;;;5116467;28;20046;-73
2022/12/27 06:59:44;;;;;;;13.60;1.40;;;4.80;99.90;;;;;;5117020;28;20054;-73
2022/12/27 07:02:20;;;;;;;13.32;1.42;;;4.40;99.90;;;;;;5117065;28;20063;-73
2022/12/27 07:04:47;;;;;;;21.25;1.85;;;4.50;99.90;;;;;;5115895;28;20337;-73
2022/12/27 07:07:15;;;;;;;15.88;2.47;;;4.50;99.90;;;;;;5099559;28;20043;-73
2022/12/27 07:09:42;;;;;;;16.92;1.45;;;5.40;99.90;;;;;;5117034;28;20048;-73
2022/12/27 07:12:10;;;;;;;12.93;1.48;;;4.60;99.90;;;;;;5098066;28;20056;-73
2022/12/27 07:14:37;;;;;;;16.77;1.63;;;4.60;99.90;;;;;;5116691;28;20048;-73
2022/12/27 07:17:05;;;;;;;14.32;1.38;;;4.60;99.90;;;;;;5097721;28;20054;-73
2022/12/27 07:19:32;;;;;;;15.25;1.45;;;4.60;99.90;;;;;;5098895;28;20047;-74
2022/12/27 07:22:00;;;;;;;13.45;1.52;;;4.60;99.90;;;;;;5081947;28;20112;-73
2022/12/27 07:24:29;;;;;;;10.80;1.63;;;4.70;99.90;;;;;;5115738;28;20039;-73
2022/12/27 07:26:57;;;;;;;11.73;1.60;;;5.20;99.90;;;;;;5098864;28;20392;-73
2022/12/27 07:29:25;;;;;;;12.18;1.60;;;4.80;99.90;;;;;;5116643;28;20054;-74
2022/12/27 07:31:53;;;;;;;14.02;1.30;;;6.70;99.90;;;;;;5097600;28;20063;-74
2022/12/27 07:34:20;;;;;;;13.80;1.60;;;5.00;99.90;;;;;;5116488;28;20475;-72
2022/12/27 07:36:48;;;;;;;19.77;2.03;;;5.00;99.90;;;;;;5115293;28;20344;-74
2022/12/27 07:39:16;;;;;;;14.80;1.35;;;5.10;99.90;;;;;;5116707;28;20117;-73
2022/12/27 07:41:43;;;;;;;16.35;1.80;;;5.10;99.90;;;;;;5116439;28;20572;-73
2022/12/27 07:44:13;;;;;;;17.02;1.45;;;5.20;99.90;;;;;;5097575;28;20039;-74
2022/12/27 07:46:41;;;;;;;14.25;1.48;;;5.30;99.90;;;;;;5098749;28;20054;-73
2022/12/27 07:49:09;;;;;;;12.43;1.45;;;5.40;99.90;;;;;;5116189;28;20040;-74
2022/12/27 07:51:44;;;;;;;10.30;1.27;;;5.40;99.90;;;;;;5115107;28;20052;-73
2022/12/27 07:54:11;;;;;;;14.70;1.58;;;5.40;99.90;;;;;;5116015;28;20048;-73
2022/12/27 07:56:39;;;;;;;13.00;2.17;;;5.50;99.90;;;;;;5115848;28;20050;-73
2022/12/27 07:59:11;;;;;;;17.40;1.70;;;5.50;99.90;;;;;;5096916;28;20372;-74
2022/12/27 08:04:25;;;;;;;11.82;1.52;;;5.60;99.90;;;;;;5102334;28;20357;-74
2022/12/27 08:07:00;;;;;;;21.52;2.08;;;5.70;99.90;;;;;;5077195;28;20465;-73
2022/12/27 08:09:30;;;;;;;15.18;1.98;;;5.70;99.90;;;;;;5096131;28;20055;-74
2022/12/27 08:11:58;;;;;;;19.63;1.90;;;6.90;99.90;;;;;;5076650;28;20388;-73
2022/12/27 08:14:25;;;;;;;17.58;1.67;;;5.70;99.90;;;;;;5077821;28;20044;-74
2022/12/27 08:16:58;;;;;;;15.50;1.60;;;5.80;99.90;;;;;;5094455;28;20456;-73
2022/12/27 08:19:25;;;;;;;13.95;1.45;;;7.00;99.90;;;;;;5095413;28;20044;-74
2022/12/27 08:21:53;;;;;;;15.57;1.40;;;5.90;99.90;;;;;;5096691;28;20453;-74
2022/12/27 08:24:20;;;;;;;15.35;1.52;;;6.00;99.90;;;;;;5097002;28;20048;-74
2022/12/27 08:26:48;;;;;;;20.17;1.95;;;6.00;99.90;;;;;;5115608;28;20360;-75
2022/12/27 08:29:15;;;;;;;15.32;1.83;;;6.00;99.90;;;;;;5115574;28;20043;-74
2022/12/27 08:31:42;;;;;;;14.70;1.67;;;6.60;99.90;;;;;;5114403;28;20047;-74
2022/12/27 08:34:10;;;;;;;22.70;1.70;;;6.10;99.90;;;;;;5097843;28;20341;-74
2022/12/27 08:36:37;;;;;;;11.85;1.55;;;6.10;99.90;;;;;;5115658;28;20113;-75
2022/12/27 08:39:23;;;;;;;15.25;1.75;;;6.50;99.90;;;;;;5081073;28;20059;-74
2022/12/27 08:41:52;;;;;;;11.60;1.52;;;6.90;99.90;;;;;;5115397;28;20486;-74
2022/12/27 08:44:21;;;;;;;10.98;1.40;;;6.20;99.90;;;;;;5114255;28;20043;-73
2022/12/27 08:46:48;;;;;;;;;;;6.30;99.90;;;;;;5098741;28;20043;-75
2022/12/27 08:49:16;;;;;;;23.15;1.50;;;6.30;99.90;;;;;;5115179;28;19927;-74
2022/12/27 08:51:43;;;;;;;10.75;1.60;;;6.30;99.90;;;;;;5079819;28;20058;-74
2022/12/27 08:54:10;;;;;;;12.43;1.55;;;6.40;99.90;;;;;;5115267;28;20066;-75
2022/12/27 08:56:38;;;;;;;13.10;1.25;;;6.40;99.90;;;;;;5080937;28;20048;-74
2022/12/27 08:59:06;;;;;;;16.00;1.50;;;6.40;99.90;;;;;;5113606;28;20047;-74
2022/12/27 09:01:33;;;;;;;10.40;1.35;;;6.40;99.90;;;;;;5114947;28;20050;-75
2022/12/27 09:04:01;;;;;;;13.00;1.40;;;6.40;99.90;;;;;;5095933;28;20074;-75
2022/12/27 09:06:28;;;;;;;13.32;1.52;;;6.60;99.90;;;;;;5097520;28;20047;-74
2022/12/27 09:08:56;;;;;;;15.15;1.05;;;6.50;99.90;;;;;;5115061;28;20047;-73
2022/12/27 09:11:26;;;;;;;13.27;1.30;;;6.50;99.90;;;;;;5079292;28;20400;-73
2022/12/27 09:13:53;;;;;;;13.05;1.25;;;6.40;99.90;;;;;;5115135;28;20066;-73
2022/12/27 09:16:23;;;;;;;8.55;1.30;;;6.60;99.90;;;;;;5096159;28;20510;-73
2022/12/27 09:18:53;;;;;;;13.82;1.50;;;8.50;99.90;;;;;;5098664;28;20055;-73
2022/12/27 09:21:22;;;;;;;14.00;1.33;;;6.60;99.90;;;;;;5101518;28;20533;-73
2022/12/27 09:23:50;;;;;;;11.23;1.27;;;6.70;99.90;;;;;;5100175;28;20039;-73
2022/12/27 09:26:23;;;;;;;10.52;1.60;;;6.70;99.90;;;;;;5119062;28;20058;-73
2022/12/27 09:28:51;;;;;;;14.82;1.30;;;6.80;99.90;;;;;;5101622;28;20051;-73
2022/12/27 09:31:20;;;;;;;15.27;1.65;;;6.90;99.90;;;;;;5100219;28;20051;-73
2022/12/27 09:33:48;;;;;;;16.33;1.88;;;7.60;99.90;;;;;;5118677;28;20052;-73
2022/12/27 09:36:19;;;;;;;13.55;1.58;;;7.10;99.90;;;;;;5084179;28;20051;-73
2022/12/27 09:38:47;;;;;;;15.20;1.60;;;7.10;99.90;;;;;;5082903;28;20062;-73
2022/12/27 09:41:34;;;;;;;11.55;1.40;;;7.20;99.90;;;;;;5083881;28;20448;-72
2022/12/27 09:44:51;;;;;;;;;;;7.70;99.90;;;;;;5081150;28;20056;-73
2022/12/27 09:47:32;;;;;;;14.30;1.80;;;7.30;99.90;;;;;;5080003;28;19924;-72
2022/12/27 09:50:10;;;;;;;15.88;1.58;;;7.40;99.90;;;;;;5118662;28;20050;-73
2022/12/27 09:53:01;;;;;;;14.30;1.45;;;7.50;99.90;;;;;;5100690;28;20044;-72
2022/12/27 09:55:40;;;;;;;17.92;2.05;;;7.50;99.90;;;;;;5100673;28;20062;-73
2022/12/27 09:58:20;;;;;;;12.15;1.73;;;7.60;99.90;;;;;;5117250;28;20043;-73
2022/12/27 10:00:50;;;;;;;14.07;1.48;;;7.60;99.90;;;;;;5118399;28;20472;-72
2022/12/27 10:03:23;;;;;;;12.40;1.50;;;7.60;99.90;;;;;;5100202;28;20044;-73
2022/12/27 10:06:12;;;;;;;14.68;1.90;;;7.60;99.90;;;;;;5100283;28;20058;-72
2022/12/27 10:08:51;;;;;;;14.38;1.67;;;7.50;99.90;;;;;;5100528;28;20040;-73
2022/12/27 10:11:34;;;;;;;12.38;1.63;;;7.50;99.90;;;;;;5117056;28;20047;-73
2022/12/27 10:14:27;;;;;;;15.65;1.40;;;7.40;99.90;;;;;;5100259;28;20376;-73
2022/12/27 10:17:06;;;;;;;18.00;1.80;;;7.40;99.90;;;;;;5116700;28;20044;-72
2022/12/27 10:19:43;;;;;;;15.93;1.73;;;7.30;99.90;;;;;;5100357;28;20055;-73
2022/12/27 10:22:34;;;;;;;13.73;1.50;;;7.30;99.90;;;;;;5117844;28;20040;-73
2022/12/27 10:25:10;;;;;;;15.45;1.95;;;7.20;99.90;;;;;;5099056;28;20468;-73
2022/12/27 10:27:39;;;;;;;19.73;1.60;;;7.20;99.90;;;;;;5100369;28;20054;-73
2022/12/27 10:30:20;;;;;;;16.70;1.40;;;7.20;99.90;;;;;;5116117;28;20044;-72
2022/12/27 10:32:48;;;;;;;24.95;2.13;;;7.20;99.90;;;;;;5117841;28;20372;-72
2022/12/27 10:35:19;;;;;;;14.30;1.75;;;7.10;99.90;;;;;;5117653;28;20051;-72
2022/12/27 10:37:48;;;;;;;17.10;1.98;;;8.10;99.90;;;;;;5116718;28;20047;-73
2022/12/27 10:40:23;;;;;;;18.17;1.80;;;7.10;99.90;;;;;;5117546;28;20044;-72
2022/12/27 10:43:04;;;;;;;15.40;1.98;;;7.20;99.90;;;;;;5099982;28;20337;-73
2022/12/27 10:45:41;;;;;;;13.35;1.92;;;8.20;99.90;;;;;;5116148;28;20425;-73
2022/12/27 10:48:11;;;;;;;21.38;2.42;;;7.20;99.90;;;;;;5117658;28;20053;-72
2022/12/27 10:50:48;;;;;;;17.80;2.55;;;7.30;99.90;;;;;;5098561;28;20381;-72
2022/12/27 10:53:33;;;;;;;20.15;2.42;;;7.30;99.90;;;;;;5099598;28;20044;-72
2022/12/27 10:56:11;;;;;;;19.92;1.95;;;7.40;99.90;;;;;;5099387;28;20058;-72
2022/12/27 10:58:48;;;;;;;13.80;2.28;;;7.40;99.90;;;;;;5098276;28;20483;-73
2022/12/27 11:01:28;;;;;;;15.05;1.90;;;7.50;99.90;;;;;;5099388;28;20055;-72
2022/12/27 11:04:11;;;;;;;16.92;2.30;;;7.60;99.90;;;;;;5115861;28;20055;-73
2022/12/27 11:07:12;;;;;;;17.02;2.05;;;7.60;99.90;;;;;;5117035;28;20047;-73
2022/12/27 11:09:42;;;;;;;11.73;2.00;;;7.70;99.90;;;;;;5103736;28;20055;-73
2022/12/27 11:12:17;;;;;;;16.55;2.25;;;7.90;99.90;;;;;;5099264;28;20055;-73
2022/12/27 11:15:02;;;;;;;22.20;2.53;;;7.90;99.90;;;;;;5116769;28;20526;-73
2022/12/27 11:17:36;;;;;;;17.30;1.98;;;7.90;99.90;;;;;;5081280;28;20074;-72
2022/12/27 11:20:36;;;;;;;22.00;2.50;;;8.00;99.90;;;;;;5082412;28;20051;-72
2022/12/27 11:23:09;;;;;;;19.50;2.97;;;8.00;99.90;;;;;;5116809;28;20058;-72
2022/12/27 11:26:01;;;;;;;22.42;2.38;;;8.00;99.90;;;;;;5115542;28;20046;-72
2022/12/27 11:28:44;;;;;;;22.10;2.13;;;8.00;99.90;;;;;;5116508;28;20050;-72
2022/12/27 11:31:15;;;;;;;17.08;1.83;;;8.10;99.90;;;;;;5115367;28;20058;-72
2022/12/27 11:34:01;;;;;;;19.15;1.95;;;8.10;99.90;;;;;;5116989;28;20052;-72
2022/12/27 11:36:33;;;;;;;16.33;2.35;;;8.20;99.90;;;;;;5116801;28;20050;-72
2022/12/27 11:39:01;;;;;;;21.60;2.47;;;8.20;99.90;;;;;;5115471;28;20368;-73
2022/12/27 11:41:46;;;;;;;13.32;2.10;;;8.30;99.90;;;;;;5097758;28;20035;-73
2022/12/27 11:44:30;;;;;;;17.95;2.00;;;8.30;99.90;;;;;;5115647;28;20044;-72
2022/12/27 11:47:07;;;;;;;16.42;1.80;;;8.30;99.90;;;;;;5098314;28;20040;-73
2022/12/27 11:49:39;;;;;;;21.60;2.40;;;8.40;99.90;;;;;;5116413;28;20040;-72
2022/12/27 11:52:15;;;;;;;22.98;2.33;;;9.90;99.90;;;;;;5097417;28;20287;-72
2022/12/27 11:54:48;;;;;;;16.27;2.20;;;8.30;99.90;;;;;;5116218;28;20353;-73
2022/12/27 11:57:49;;;;;;;17.63;2.63;;;8.30;99.90;;;;;;5097256;28;20040;-73
2022/12/27 12:00:22;;;;;;;17.15;2.08;;;8.30;99.90;;;;;;5098020;28;20048;-73
2022/12/27 12:03:00;;;;;;;19.50;2.35;;;8.30;99.90;;;;;;5093170;28;20465;-72
2022/12/27 12:05:46;;;;;;;19.77;2.10;;;8.30;99.90;;;;;;5076662;28;20055;-73
2022/12/27 12:08:35;;;;;;;19.42;2.15;;;8.20;99.90;;;;;;5095578;28;20048;-72
2022/12/27 12:11:24;;;;;;;17.45;2.47;;;8.30;99.90;;;;;;5076972;28;20071;-72
2022/12/27 12:14:29;;;;;;;15.88;2.20;;;8.30;99.90;;;;;;5095313;28;20456;-72
2022/12/27 12:17:18;;;;;;;16.35;2.00;;;8.40;99.90;;;;;;5094205;28;20118;-72
2022/12/27 12:19:57;;;;;;;17.13;2.50;;;9.40;99.90;;;;;;5077980;28;20384;-73
2022/12/27 12:22:53;;;;;;;14.00;2.08;;;9.10;99.90;;;;;;5095707;28;20040;-72
2022/12/27 12:25:42;;;;;;;18.13;2.15;;;8.80;99.90;;;;;;5076294;28;20040;-73
2022/12/27 12:28:30;;;;;;;20.10;2.35;;;8.60;99.90;;;;;;5077593;28;20107;-73
2022/12/27 12:31:21;;;;;;;18.45;2.28;;;8.70;99.90;;;;;;5059105;28;20052;-74
2022/12/27 12:34:07;;;;;;;17.80;2.17;;;8.70;99.90;;;;;;5094644;28;20465;-73
2022/12/27 12:36:41;;;;;;;19.15;2.05;;;8.80;99.90;;;;;;5094799;28;20048;-74
2022/12/27 12:39:41;;;;;;;17.05;2.03;;;11.20;99.90;;;;;;5077010;28;20048;-74
2022/12/27 12:42:33;;;;;;;12.88;1.75;;;8.90;99.90;;;;;;5094384;28;20044;-73
2022/12/27 12:45:38;;;;;;;19.50;2.35;;;9.00;99.90;;;;;;5075977;28;20126;-72
2022/12/27 12:48:27;;;;;;;11.15;1.77;;;9.00;99.90;;;;;;5076737;28;20044;-76
2022/12/27 12:51:03;;;;;;;16.98;1.85;;;9.10;99.90;;;;;;5059268;28;20052;-74
2022/12/27 12:53:43;;;;;;;9.32;1.90;;;9.10;99.90;;;;;;5076890;28;20044;-73
2022/12/27 12:56:48;;;;;;;13.38;1.90;;;10.10;99.90;;;;;;5060279;28;20369;-73
2022/12/27 12:59:40;;;;;;;12.98;2.10;;;9.30;99.90;;;;;;5043378;28;20377;-73
2022/12/27 13:02:39;;;;;;;10.60;1.80;;;9.40;99.90;;;;;;5094354;28;20037;-73
2022/12/27 13:05:18;;;;;;;12.82;1.55;;;9.50;99.90;;;;;;5058862;28;20048;-73
2022/12/27 13:08:03;;;;;;;15.90;2.08;;;9.60;99.90;;;;;;5076771;28;20048;-74
2022/12/27 13:10:34;;;;;;;15.93;2.00;;;9.60;99.90;;;;;;5075761;28;20044;-71
2022/12/27 13:13:43;;;;;;;13.10;2.10;;;9.60;99.90;;;;;;5059944;28;20044;-74
2022/12/27 13:16:39;;;;;;;16.55;2.20;;;9.60;99.90;;;;;;5060724;28;20048;-74
2022/12/27 13:19:18;;;;;;;13.93;1.77;;;9.70;99.90;;;;;;5094307;28;20040;-74
2022/12/27 13:21:58;;;;;;;14.25;2.03;;;9.60;99.90;;;;;;5076459;28;20040;-74
2022/12/27 13:24:44;;;;;;;14.18;1.90;;;9.60;99.90;;;;;;5063560;28;20456;-74
2022/12/27 13:27:28;;;;;;;16.83;1.60;;;9.60;99.90;;;;;;5073840;28;20045;-74
2022/12/27 13:30:15;;;;;;;11.25;1.92;;;9.60;99.90;;;;;;5056402;28;20052;-74
2022/12/27 13:32:57;;;;;;;20.30;2.50;;;9.60;99.90;;;;;;5056393;28;20040;-74
2022/12/27 13:35:43;;;;;;;15.45;2.08;;;9.90;99.90;;;;;;5056470;28;20057;-74
2022/12/27 13:38:13;;;;;;;18.00;2.10;;;9.60;99.90;;;;;;5072725;28;20041;-75
2022/12/27 13:41:07;;;;;;;17.35;2.40;;;9.60;99.90;;;;;;5073725;28;20378;-76
2022/12/27 13:44:12;;;;;;;13.25;2.05;;;9.70;99.90;;;;;;5055181;28;20048;-74
2022/12/27 13:47:06;;;;;;;16.45;1.90;;;9.70;99.90;;;;;;5055980;28;20075;-74
2022/12/27 13:49:48;;;;;;;20.88;2.20;;;9.80;99.90;;;;;;5056606;28;20045;-74
2022/12/27 13:52:24;;;;;;;19.25;2.80;;;10.20;99.90;;;;;;5073018;28;20052;-74
2022/12/27 13:55:10;;;;;;;27.55;2.38;;;9.90;99.90;;;;;;5074221;28;20048;-74
2022/12/27 13:58:08;;;;;;;20.88;2.67;;;9.90;99.90;;;;;;5055778;28;20052;-75
2022/12/27 14:00:52;;;;;;;16.05;2.15;;;10.00;99.90;;;;;;5074306;28;20048;-74
2022/12/27 14:03:25;;;;;;;16.13;2.00;;;10.10;99.90;;;;;;5082950;28;20048;-73
2022/12/27 14:06:05;;;;;;;19.48;2.33;;;10.20;99.90;;;;;;5079225;28;20055;-74
2022/12/27 14:09:10;;;;;;;16.10;2.25;;;10.30;99.90;;;;;;5080313;28;20385;-74
2022/12/27 14:11:49;;;;;;;19.08;2.30;;;10.30;99.90;;;;;;5078666;28;20048;-73
2022/12/27 14:14:18;;;;;;;18.15;2.20;;;10.30;99.90;;;;;;5080518;28;20067;-74
2022/12/27 14:17:22;;;;;;;19.20;2.22;;;10.30;99.90;;;;;;5096706;28;20048;-75
2022/12/27 14:20:18;;;;;;;17.92;2.47;;;10.30;99.90;;;;;;5062570;28;20376;-73
2022/12/27 14:22:59;;;;;;;17.77;2.47;;;10.30;99.90;;;;;;5097238;28;20483;-74
2022/12/27 14:25:56;;;;;;;18.10;2.70;;;10.30;99.90;;;;;;5078464;28;20507;-74
2022/12/27 14:28:32;;;;;;;23.55;2.30;;;10.30;99.90;;;;;;5097030;28;20055;-74
2022/12/27 14:31:36;;;;;;;21.48;2.60;;;10.30;99.90;;;;;;5078505;28;20048;-74
2022/12/27 14:34:26;;;;;;;15.82;2.33;;;10.20;99.90;;;;;;5096959;28;20058;-74
2022/12/27 14:37:33;;;;;;;18.50;2.47;;;10.20;99.90;;;;;;5078682;28;20067;-73
2022/12/27 14:40:38;;;;;;;19.17;2.33;;;10.20;99.90;;;;;;5079863;28;20059;-73
2022/12/27 14:43:46;;;;;;;20.65;2.67;;;10.10;99.90;;;;;;5079890;28;20048;-74
2022/12/27 14:46:52;;;;;;;18.77;2.45;;;10.10;99.90;;;;;;5079898;28;20071;-74
2022/12/27 14:49:31;;;;;;;13.93;2.10;;;10.10;99.90;;;;;;5079227;28;20043;-74
2022/12/27 14:52:35;;;;;;;20.00;2.28;;;9.80;99.90;;;;;;5095992;28;20393;-73
2022/12/27 14:55:30;;;;;;;21.25;2.53;;;10.10;99.90;;;;;;5062374;28;20499;-75
2022/12/27 14:58:15;;;;;;;17.60;2.67;;;10.10;99.90;;;;;;5095792;28;20495;-75
2022/12/27 15:00:58;;;;;;;13.02;1.92;;;10.10;99.90;;;;;;5062883;28;20376;-75
2022/12/27 15:03:53;;;;;;;18.73;2.30;;;10.10;99.90;;;;;;5093477;28;20114;-75
2022/12/27 15:06:51;;;;;;;16.25;2.47;;;10.10;99.90;;;;;;5080156;28;20388;-75
2022/12/27 15:09:48;;;;;;;27.88;2.92;;;10.00;99.90;;;;;;5079856;28;20044;-76
2022/12/27 15:12:21;;;;;;;22.25;2.67;;;10.00;99.90;;;;;;5074224;28;20052;-74